Canyonlands, Utah
Current Conditions -  °F | °C
As of 2:53 AM on Tuesday 21 Oct 2014 (Local Time) from KCNY Reporting Station
Broken Clouds Broken Clouds  
Wind Chill: 59°   Ceiling: 9500
Heat Index: 59°   Visibility: 10mi
Dew Point: 40°   Wind: 7mph
Humidity: 49%   Direction: 130°SE
Pressure: 30"   Gusts: NA
Location:  38.6903°N, 109.256°W
Report Text: KCNY 210853Z AUTO 13006KT 10SM BKN095 BKN120 15/04 A3000 RMK AO2 SLP112 T01500044 55000
Loading
Personal Weather Stations






























Interactive Weather Map
Tropical Storm Tracking
New forecast layout! Learn more

10-Day Weather Forecast

Advertisements
Track Severe Weather on mobile